Weather at Indira Gandhi International Airport

Public forecast

Using degrees Celsius for public forecast. Weather courtesy of forecast.io.

Current aviation weather report (METAR) for Indira Gandhi International Airport

2024/06/19 07:00 (retrieved 24 minutes ago)

VIDP 190700Z 27010G20KT 5000 HZ SCT035 41/20 Q0997 NOSIG

Aviation forecast (TAF) for Indira Gandhi International Airport

2024/06/19 06:00 (retrieved 1 hour ago)

TAF VIDP 190500Z 1906/2012 26012G24KT 4500 HZ NSC BECMG 1908/1910 29008G18KT 5000 HZ TEMPO 1913/1915 29015G30KT 2000 -TSRA SCT030 FEW035CB SCT100 BECMG 1918/1920 27008KT 4000 HZ DZ FEW035 SCT100 BECMG 2000/2002 27008KT 27008KT 3000 HZ BECMG 2004/2006 4000 HZ TEMPO 2008/2012 27012G30KT 2000 -TSRA SCT030 FEW035CB BKN090